createdAt,value
2019-03-04T00:01:29.119Z,98741.42
2019-03-04T00:04:18.926Z,98743.61
2019-03-04T00:07:08.729Z,98739.67
2019-03-04T00:09:58.543Z,98735.48
2019-03-04T00:12:48.350Z,98741.47
2019-03-04T00:15:38.129Z,98743.87
2019-03-04T00:18:27.968Z,98742.27
2019-03-04T00:21:18.055Z,98745.14
2019-03-04T00:24:07.898Z,98731.59
2019-03-04T00:26:57.700Z,98724.02
2019-03-04T00:29:47.506Z,98724.42
2019-03-04T00:32:37.293Z,98727.45
2019-03-04T00:35:07.666Z,98715.63
2019-03-04T00:37:57.434Z,98720.82
2019-03-04T00:40:47.217Z,98711.06
2019-03-04T00:43:37.030Z,98711.90
2019-03-04T00:46:26.837Z,98701.72
2019-03-04T00:49:16.631Z,98704.27
2019-03-04T00:52:06.434Z,98700.80
2019-03-04T00:54:56.243Z,98700.33
2019-03-04T00:57:46.021Z,98693.22
2019-03-04T01:00:35.808Z,98691.58
2019-03-04T01:03:25.607Z,98683.14
2019-03-04T01:06:15.401Z,98677.25
2019-03-04T01:12:07.922Z,98674.81
2019-03-04T01:14:57.699Z,98671.38
2019-03-04T01:17:47.484Z,98676.46
2019-03-04T01:20:37.316Z,98669.30
2019-03-04T01:23:27.124Z,98653.23
2019-03-04T01:26:16.889Z,98655.88
2019-03-04T01:29:06.666Z,98657.69
2019-03-04T01:31:56.533Z,98654.66
2019-03-04T01:34:46.398Z,98657.90
2019-03-04T01:37:36.173Z,98654.70
2019-03-04T01:40:25.942Z,98653.60
2019-03-04T01:43:15.774Z,98652.53
2019-03-04T01:46:05.580Z,98651.76
2019-03-04T01:48:55.405Z,98651.48
2019-03-04T01:51:45.222Z,98651.91
2019-03-04T01:54:35.077Z,98649.14
2019-03-04T01:57:24.908Z,98644.96
2019-03-04T02:00:19.246Z,98647.77
2019-03-04T02:03:09.072Z,98656.78
2019-03-04T02:05:58.896Z,98650.06
2019-03-04T02:08:29.315Z,98642.09
2019-03-04T02:11:19.088Z,98640.83
2019-03-04T02:17:16.074Z,98643.80
2019-03-04T02:20:07.427Z,98633.16
2019-03-04T02:22:38.176Z,98646.17
2019-03-04T02:26:07.064Z,98643.52
2019-03-04T02:28:57.178Z,98645.89
2019-03-04T02:31:46.951Z,98646.16
2019-03-04T02:34:36.734Z,98647.48
2019-03-04T02:37:26.544Z,98638.26
2019-03-04T02:40:16.327Z,98641.76
2019-03-04T02:43:06.161Z,98640.36
2019-03-04T02:45:55.976Z,98645.47
2019-03-04T02:48:45.781Z,98644.86
2019-03-04T02:51:35.570Z,98641.53
2019-03-04T02:54:25.344Z,98638.97
2019-03-04T02:57:01.744Z,98639.77
2019-03-04T02:59:51.543Z,98638.98
2019-03-04T03:02:41.289Z,98642.38
2019-03-04T03:08:35.318Z,98637.11
2019-03-04T03:11:25.153Z,98635.45
2019-03-04T03:14:14.961Z,98627.45
2019-03-04T03:17:04.790Z,98632.13
2019-03-04T03:19:41.174Z,98633.78
2019-03-04T03:22:30.991Z,98630.78
2019-03-04T03:25:07.739Z,98638.75
2019-03-04T03:27:44.143Z,98636.19
2019-03-04T03:30:14.558Z,98631.88
2019-03-04T03:33:04.318Z,98628.85
2019-03-04T03:35:54.137Z,98630.06
2019-03-04T03:38:24.586Z,98633.53
2019-03-04T03:41:14.450Z,98630.67
2019-03-04T03:44:04.256Z,98627.34
2019-03-04T03:46:54.056Z,98633.78
2019-03-04T03:49:30.708Z,98617.31
2019-03-04T03:52:20.498Z,98599.92
2019-03-04T03:55:10.523Z,98600.94
2019-03-04T03:57:40.895Z,98598.52
2019-03-04T04:00:30.702Z,98591.05
2019-03-04T04:03:20.568Z,98587.72
2019-03-04T04:05:50.969Z,98579.75
2019-03-04T04:08:40.763Z,98584.86
2019-03-04T04:11:30.525Z,98575.63
2019-03-04T04:14:20.305Z,98580.41
2019-03-04T04:17:10.103Z,98577.93
2019-03-04T04:19:59.867Z,98570.77
2019-03-04T04:22:49.712Z,98572.89
2019-03-04T04:25:39.477Z,98569.56
2019-03-04T04:31:12.827Z,98569.55
2019-03-04T04:34:02.652Z,98563.98
2019-03-04T04:36:52.430Z,98567.21
2019-03-04T04:39:42.224Z,98567.45
2019-03-04T04:42:31.988Z,98559.09
2019-03-04T04:45:21.782Z,98558.55
2019-03-04T04:48:11.590Z,98557.09
2019-03-04T04:51:01.420Z,98546.53
2019-03-04T04:53:51.166Z,98542.14
2019-03-04T04:56:40.928Z,98536.88
2019-03-04T04:59:31.587Z,98532.14
2019-03-04T05:02:21.355Z,98528.18
2019-03-04T05:05:11.253Z,98526.99
2019-03-04T05:07:41.738Z,98529.79
2019-03-04T05:10:31.526Z,98525.72
2019-03-04T05:13:21.298Z,98526.75
2019-03-04T05:16:11.108Z,98521.67
2019-03-04T05:18:41.521Z,98514.02
2019-03-04T05:21:11.910Z,98519.73
2019-03-04T05:24:01.665Z,98517.81
2019-03-04T05:26:51.468Z,98518.41
2019-03-04T05:29:41.279Z,98515.08
2019-03-04T05:32:31.107Z,98515.17
2019-03-04T05:35:20.892Z,98512.16
2019-03-04T05:38:10.688Z,98493.03
2019-03-04T05:40:41.101Z,98484.54
2019-03-04T05:43:30.959Z,98478.98
2019-03-04T05:46:22.853Z,98482.41
2019-03-04T05:49:12.695Z,98474.26
2019-03-04T05:52:02.597Z,98471.81
2019-03-04T05:54:52.438Z,98466.73
2019-03-04T05:57:42.244Z,98467.64
2019-03-04T06:03:20.468Z,98458.86
2019-03-04T06:06:10.424Z,98462.02
2019-03-04T06:09:00.215Z,98454.39
2019-03-04T06:11:49.992Z,98454.34
2019-03-04T06:14:39.791Z,98449.05
2019-03-04T06:17:29.574Z,98448.88
2019-03-04T06:20:19.739Z,98449.70
2019-03-04T06:25:35.440Z,98435.03
2019-03-04T06:28:25.226Z,98439.51
2019-03-04T06:31:15.065Z,98434.21
2019-03-04T06:34:04.867Z,98447.17
2019-03-04T06:36:54.633Z,98444.50
2019-03-04T06:39:44.375Z,98430.83
2019-03-04T06:42:34.171Z,98437.01
2019-03-04T06:45:23.972Z,98424.41
2019-03-04T06:48:13.770Z,98427.48
2019-03-04T06:51:05.337Z,98425.84
2019-03-04T06:54:33.239Z,98438.72
2019-03-04T06:57:29.122Z,98431.09
2019-03-04T07:00:38.429Z,98428.27
2019-03-04T07:03:53.517Z,98423.00
2019-03-04T07:06:43.315Z,98413.95
2019-03-04T07:09:33.075Z,98414.31
2019-03-04T07:12:22.863Z,98404.86
2019-03-04T07:15:12.630Z,98402.83
2019-03-04T07:18:02.394Z,98406.08
2019-03-04T07:20:52.168Z,98411.97
2019-03-04T07:23:41.965Z,98408.45
2019-03-04T07:26:31.785Z,98400.89
2019-03-04T07:29:21.549Z,98408.63
2019-03-04T07:32:11.359Z,98398.09
2019-03-04T07:34:41.721Z,98406.48
2019-03-04T07:37:31.505Z,98395.34
2019-03-04T07:40:21.270Z,98384.06
2019-03-04T07:43:11.059Z,98380.27
2019-03-04T07:45:41.519Z,98371.80
2019-03-04T07:48:31.300Z,98378.44
2019-03-04T07:51:21.169Z,98373.25
2019-03-04T07:54:10.961Z,98375.45
2019-03-04T07:56:41.441Z,98380.20
2019-03-04T07:59:31.294Z,98379.25
2019-03-04T08:02:21.060Z,98376.87
2019-03-04T08:05:10.870Z,98371.80
2019-03-04T08:08:00.449Z,98362.54
2019-03-04T08:11:28.305Z,98358.21
2019-03-04T08:14:18.093Z,98358.17
2019-03-04T08:17:07.872Z,98349.29
2019-03-04T08:19:57.659Z,98331.64
2019-03-04T08:22:28.042Z,98322.69
2019-03-04T08:25:00.042Z,98313.02
2019-03-04T08:27:49.821Z,98303.73
2019-03-04T08:30:39.995Z,98287.37
2019-03-04T08:33:11.822Z,98283.72
2019-03-04T08:35:42.175Z,98291.04
2019-03-04T08:38:31.955Z,98284.75
2019-03-04T08:41:21.686Z,98274.84
2019-03-04T08:44:11.459Z,98274.99
2019-03-04T08:46:41.845Z,98285.27
2019-03-04T08:49:44.436Z,98278.63
2019-03-04T08:52:15.929Z,98280.23
2019-03-04T08:55:06.346Z,98267.97
2019-03-04T09:01:04.113Z,98255.12
2019-03-04T09:03:53.928Z,98230.44
2019-03-04T09:06:43.755Z,98232.20
2019-03-04T09:09:34.013Z,98235.49
2019-03-04T09:12:23.826Z,98226.77
2019-03-04T09:14:54.331Z,98227.03
2019-03-04T09:17:44.174Z,98214.86
2019-03-04T09:20:33.965Z,98198.59
2019-03-04T09:23:23.799Z,98202.62
2019-03-04T09:26:13.567Z,98198.73
2019-03-04T09:29:03.394Z,98194.78
2019-03-04T09:31:53.215Z,98191.05
2019-03-04T09:34:24.048Z,98180.88
2019-03-04T09:37:13.832Z,98177.27
2019-03-04T09:40:03.668Z,98167.23
2019-03-04T09:42:53.434Z,98154.64
2019-03-04T09:45:43.289Z,98150.16
2019-03-04T09:48:33.102Z,98147.58
2019-03-04T09:51:24.651Z,98142.88
2019-03-04T09:54:14.392Z,98129.83
2019-03-04T09:57:04.171Z,98120.30
2019-03-04T09:59:53.946Z,98126.77
2019-03-04T10:02:46.088Z,98125.22
2019-03-04T10:05:58.800Z,98116.73
2019-03-04T10:09:26.698Z,98103.39
2019-03-04T10:12:54.582Z,98101.98
2019-03-04T10:16:18.282Z,98096.58
2019-03-04T10:19:38.603Z,98094.61
2019-03-04T10:22:47.409Z,98087.02
2019-03-04T10:26:02.691Z,98079.71
2019-03-04T10:29:30.564Z,98067.48
2019-03-04T10:32:54.335Z,98055.49
2019-03-04T10:35:53.957Z,98050.86
2019-03-04T10:38:46.171Z,98053.77
2019-03-04T10:42:14.084Z,98044.84
2019-03-04T10:45:41.964Z,98042.63
2019-03-04T10:48:31.765Z,98038.80
2019-03-04T10:51:21.559Z,98036.58
2019-03-04T10:54:11.423Z,98025.70
2019-03-04T10:56:42.502Z,98028.06
2019-03-04T10:59:26.999Z,98015.00
2019-03-04T11:02:16.864Z,98006.23
2019-03-04T11:04:47.454Z,97991.72
2019-03-04T11:07:37.324Z,97994.92
2019-03-04T11:10:27.157Z,97984.13
2019-03-04T11:13:16.951Z,97973.23
2019-03-04T11:16:06.781Z,97971.06
2019-03-04T11:18:56.603Z,97967.55
2019-03-04T11:21:46.426Z,97961.52
2019-03-04T11:24:36.209Z,97953.49
2019-03-04T11:27:26.058Z,97954.94
2019-03-04T11:30:16.171Z,97940.91
2019-03-04T11:33:06.200Z,97940.71
2019-03-04T11:35:56.031Z,97924.59
2019-03-04T11:38:48.072Z,97914.73
2019-03-04T11:41:38.791Z,97920.37
2019-03-04T11:44:28.654Z,97907.27
2019-03-04T11:50:16.944Z,97887.34
2019-03-04T11:53:06.831Z,97880.05
2019-03-04T11:55:56.621Z,97870.88
2019-03-04T11:58:46.465Z,97856.34
2019-03-04T12:01:55.179Z,97863.09
2019-03-04T12:04:45.104Z,97850.55
2019-03-04T12:07:35.024Z,97842.45
2019-03-04T12:10:07.737Z,97816.98
2019-03-04T12:12:38.993Z,97815.24
2019-03-04T12:15:28.920Z,97804.66
2019-03-04T12:18:18.761Z,97801.95
2019-03-04T12:21:08.622Z,97799.87
2019-03-04T12:23:58.446Z,97793.02
2019-03-04T12:26:48.334Z,97797.52
2019-03-04T12:29:38.145Z,97790.00
2019-03-04T12:32:46.887Z,97771.48
2019-03-04T12:35:36.718Z,97754.98
2019-03-04T12:38:26.536Z,97721.87
2019-03-04T12:40:57.040Z,97693.77
2019-03-04T12:43:46.991Z,97686.14
2019-03-04T12:46:36.832Z,97687.05
2019-03-04T12:49:26.660Z,97681.11
2019-03-04T12:52:16.596Z,97670.84
2019-03-04T12:55:08.169Z,97663.06
2019-03-04T12:57:39.008Z,97644.30
2019-03-04T13:00:29.003Z,97629.02
2019-03-04T13:03:38.093Z,97628.75
2019-03-04T13:06:27.979Z,97635.15
2019-03-04T13:09:17.757Z,97627.66
2019-03-04T13:12:07.700Z,97612.34
2019-03-04T13:14:57.509Z,97608.84
2019-03-04T13:20:33.088Z,97594.38
2019-03-04T13:23:22.937Z,97586.37
2019-03-04T13:26:12.787Z,97591.33
2019-03-04T13:29:02.593Z,97593.98
2019-03-04T13:31:45.460Z,97588.80
2019-03-04T13:34:35.291Z,97587.22
2019-03-04T13:37:25.107Z,97584.80
2019-03-04T13:43:18.148Z,97571.72
2019-03-04T13:46:07.942Z,97570.01
2019-03-04T13:48:57.748Z,97552.89
2019-03-04T13:51:47.544Z,97539.67
2019-03-04T13:54:57.853Z,97530.48
2019-03-04T13:57:30.206Z,97523.65
2019-03-04T14:00:20.512Z,97520.38
2019-03-04T14:03:10.563Z,97501.78
2019-03-04T14:06:00.622Z,97496.99
2019-03-04T14:08:50.421Z,97498.58
2019-03-04T14:11:40.253Z,97502.13
2019-03-04T14:14:49.082Z,97489.18
2019-03-04T14:17:38.908Z,97480.03
2019-03-04T14:20:10.141Z,97476.81
2019-03-04T14:23:02.326Z,97478.72
2019-03-04T14:25:52.327Z,97475.42
2019-03-04T14:28:42.166Z,97478.97
2019-03-04T14:31:32.008Z,97464.37
2019-03-04T14:34:21.850Z,97466.05
2019-03-04T14:37:11.657Z,97470.72
2019-03-04T14:39:42.171Z,97474.36
2019-03-04T14:42:31.996Z,97463.70
2019-03-04T14:45:21.885Z,97459.80
2019-03-04T14:48:11.662Z,97450.38
2019-03-04T14:50:42.213Z,97460.61
2019-03-04T14:53:32.031Z,97452.39
2019-03-04T14:56:22.578Z,97449.96
2019-03-04T14:59:14.971Z,97454.20
2019-03-04T15:01:57.434Z,97450.52
2019-03-04T15:04:28.039Z,97461.11
2019-03-04T15:07:30.451Z,97466.80
2019-03-04T15:10:03.781Z,97473.02
2019-03-04T15:12:53.654Z,97465.66
2019-03-04T15:15:43.532Z,97462.06
2019-03-04T15:18:14.184Z,97461.91
2019-03-04T15:21:04.890Z,97457.61
2019-03-04T15:23:54.737Z,97459.50
2019-03-04T15:26:44.609Z,97468.58
2019-03-04T15:29:34.458Z,97471.47
2019-03-04T15:32:24.309Z,97473.25
2019-03-04T15:34:54.824Z,97485.33
2019-03-04T15:37:44.678Z,97480.03
2019-03-04T15:40:34.570Z,97480.17
2019-03-04T15:43:24.774Z,97490.28
2019-03-04T15:46:14.781Z,97491.87
2019-03-04T15:49:04.649Z,97491.25
2019-03-04T15:51:54.548Z,97493.09
2019-03-04T15:54:24.962Z,97514.55
2019-03-04T15:57:14.798Z,97537.44
2019-03-04T16:00:05.509Z,97535.97
2019-03-04T16:02:55.419Z,97561.15
2019-03-04T16:05:45.419Z,97578.75
2019-03-04T16:08:35.394Z,97582.38
2019-03-04T16:11:25.229Z,97605.84
2019-03-04T16:13:56.285Z,97609.70
2019-03-04T16:16:47.314Z,97640.68
2019-03-04T16:19:37.266Z,97634.58
2019-03-04T16:22:27.079Z,97670.94
2019-03-04T16:25:17.148Z,97718.56
2019-03-04T16:28:10.664Z,97732.84
2019-03-04T16:30:41.415Z,97735.68
2019-03-04T16:33:31.215Z,97750.75
2019-03-04T16:36:21.044Z,97799.61
2019-03-04T16:39:10.862Z,97811.80
2019-03-04T16:42:01.110Z,97822.00
2019-03-04T16:44:50.928Z,97803.73
2019-03-04T16:47:41.281Z,97830.71
2019-03-04T16:50:31.159Z,97874.09
2019-03-04T16:53:21.828Z,97861.80
2019-03-04T16:56:11.697Z,97856.15
2019-03-04T16:58:42.175Z,97907.58
2019-03-04T17:01:32.503Z,97900.92
2019-03-04T17:04:22.388Z,97988.44
2019-03-04T17:07:12.164Z,97904.83
2019-03-04T17:09:42.669Z,97946.62
2019-03-04T17:12:32.488Z,97945.06
2019-03-04T17:18:25.460Z,97982.59
2019-03-04T17:21:15.322Z,98031.88
2019-03-04T17:24:05.302Z,98022.58
2019-03-04T17:26:55.311Z,98013.20
2019-03-04T17:29:45.164Z,98019.48
2019-03-04T17:32:35.145Z,98027.14
2019-03-04T17:35:25.070Z,98077.77
2019-03-04T17:38:14.969Z,98084.54
2019-03-04T17:40:45.359Z,98068.11
2019-03-04T17:43:35.214Z,98088.37
2019-03-04T17:46:25.064Z,98084.50
2019-03-04T17:49:14.948Z,98099.31
2019-03-04T17:54:51.448Z,98043.88
2019-03-04T17:57:41.258Z,98057.01
2019-03-04T18:00:31.315Z,98033.04
2019-03-04T18:03:21.107Z,98026.74
2019-03-04T18:05:51.851Z,98010.98
2019-03-04T18:08:42.690Z,97996.51
2019-03-04T18:11:32.547Z,97979.58
2019-03-04T18:14:22.368Z,97996.22
2019-03-04T18:17:12.200Z,97990.95
2019-03-04T18:19:42.697Z,97973.12
2019-03-04T18:26:01.052Z,98000.02
2019-03-04T18:29:29.015Z,97984.09
2019-03-04T18:32:45.654Z,98020.59
2019-03-04T18:35:45.061Z,97967.43
2019-03-04T18:39:12.935Z,97964.64
2019-03-04T18:42:40.848Z,97972.28
2019-03-04T18:46:08.813Z,97990.30
2019-03-04T18:49:06.981Z,98009.20
2019-03-04T18:51:56.991Z,98007.92
2019-03-04T18:54:46.919Z,97989.66
2019-03-04T18:57:36.878Z,98000.09
2019-03-04T19:00:27.079Z,97983.34
2019-03-04T19:03:16.961Z,97990.86
2019-03-04T19:06:06.850Z,97991.42
2019-03-04T19:08:56.735Z,97987.85
2019-03-04T19:11:46.725Z,98000.20
2019-03-04T19:14:36.644Z,98000.97
2019-03-04T19:17:07.889Z,97987.29
2019-03-04T19:19:58.686Z,97981.13
2019-03-04T19:22:48.582Z,97985.48
2019-03-04T19:25:38.896Z,97965.97
2019-03-04T19:28:28.732Z,97959.41
2019-03-04T19:31:18.517Z,97958.69
2019-03-04T19:33:49.072Z,98006.85
2019-03-04T19:36:38.910Z,97969.52
2019-03-04T19:39:29.291Z,97965.23
2019-03-04T19:42:19.082Z,97943.14
2019-03-04T19:45:11.476Z,97958.50
2019-03-04T19:47:42.390Z,97987.30
2019-03-04T19:50:13.092Z,97955.94
2019-03-04T19:53:05.789Z,97991.64
2019-03-04T19:55:55.674Z,97980.76
2019-03-04T19:58:45.503Z,97983.44
2019-03-04T20:01:35.387Z,97987.16
2019-03-04T20:04:25.239Z,97983.52
2019-03-04T20:07:27.931Z,97979.48
2019-03-04T20:10:01.230Z,97978.20
2019-03-04T20:12:51.260Z,97974.25
2019-03-04T20:15:41.374Z,97989.27
2019-03-04T20:18:31.215Z,97996.37
2019-03-04T20:21:21.032Z,97990.47
2019-03-04T20:24:10.916Z,98003.58
2019-03-04T20:27:00.745Z,98003.53
2019-03-04T20:29:31.293Z,98016.00
2019-03-04T20:32:21.154Z,98013.00
2019-03-04T20:35:11.669Z,98018.63
2019-03-04T20:37:44.786Z,97994.03
2019-03-04T20:40:34.630Z,97970.59
2019-03-04T20:43:24.423Z,98005.56
2019-03-04T20:46:14.435Z,97987.55
2019-03-04T20:49:04.245Z,97970.72
2019-03-04T20:51:54.129Z,97973.06
2019-03-04T20:54:43.997Z,98010.34
2019-03-04T20:57:33.877Z,98006.28
2019-03-04T21:00:04.793Z,97979.56
2019-03-04T21:02:54.690Z,97992.88
2019-03-04T21:05:46.837Z,98009.54
2019-03-04T21:08:17.407Z,97985.11
2019-03-04T21:11:07.462Z,97946.51
2019-03-04T21:13:57.434Z,97969.88
2019-03-04T21:16:47.706Z,97954.20
2019-03-04T21:19:39.688Z,97956.84
2019-03-04T21:22:29.554Z,97957.06
2019-03-04T21:25:39.579Z,97955.09
2019-03-04T21:28:55.952Z,97964.00
2019-03-04T21:32:07.488Z,97956.31
2019-03-04T21:35:35.424Z,97959.54
2019-03-04T21:38:29.227Z,97935.65
2019-03-04T21:41:57.872Z,97972.22
2019-03-04T21:45:07.345Z,98011.92
2019-03-04T21:48:02.056Z,97960.48
2019-03-04T21:51:10.889Z,97942.72
2019-03-04T21:54:13.629Z,97936.14
2019-03-04T21:57:02.526Z,97948.38
2019-03-04T21:59:52.432Z,97975.53
2019-03-04T22:03:03.314Z,97956.45
2019-03-04T22:05:53.213Z,98017.63
2019-03-04T22:08:43.147Z,97970.81
2019-03-04T22:11:33.065Z,97978.31
2019-03-04T22:14:03.861Z,97985.61
2019-03-04T22:16:34.523Z,98003.44
2019-03-04T22:19:24.337Z,98028.97
2019-03-04T22:22:14.611Z,98051.01
2019-03-04T22:25:04.560Z,98065.75
2019-03-04T22:27:54.389Z,98085.27
2019-03-04T22:30:44.213Z,98147.75
2019-03-04T22:33:34.073Z,98043.71
2019-03-04T22:36:23.961Z,98048.52
2019-03-04T22:39:13.922Z,98085.63
2019-03-04T22:42:03.790Z,98127.13
2019-03-04T22:44:53.604Z,98127.44
2019-03-04T22:47:43.581Z,98129.92
2019-03-04T22:50:33.494Z,98145.20
2019-03-04T22:53:03.988Z,98150.33
2019-03-04T22:55:53.821Z,98169.41
2019-03-04T22:58:43.641Z,98163.20
2019-03-04T23:05:01.755Z,98149.28
2019-03-04T23:07:54.316Z,98148.84
2019-03-04T23:10:45.294Z,98176.62
2019-03-04T23:14:13.161Z,98199.62
2019-03-04T23:16:43.585Z,98218.37
2019-03-04T23:19:33.369Z,98254.61
2019-03-04T23:22:22.880Z,98234.66
2019-03-04T23:25:13.152Z,98226.50
2019-03-04T23:27:43.574Z,98275.17
2019-03-04T23:30:33.356Z,98267.71
2019-03-04T23:33:23.390Z,98341.00
2019-03-04T23:36:13.347Z,98303.70
2019-03-04T23:41:46.671Z,98350.00
2019-03-04T23:44:36.518Z,98333.69
2019-03-04T23:47:06.887Z,98358.78
2019-03-04T23:50:34.865Z,98347.78
2019-03-04T23:53:24.672Z,98339.94
2019-03-04T23:55:55.216Z,98341.78
2019-03-04T23:58:44.981Z,98366.11
